createdAt,value
2018-07-15T00:01:54.475Z,8.60
2018-07-15T00:04:57.056Z,8.30
2018-07-15T00:07:59.552Z,7.87
2018-07-15T00:11:01.854Z,8.10
2018-07-15T00:14:04.294Z,8.43
2018-07-15T00:17:06.730Z,9.97
2018-07-15T00:20:09.017Z,10.47
2018-07-15T00:23:11.384Z,9.40
2018-07-15T00:26:13.746Z,8.80
2018-07-15T00:29:16.129Z,9.17
2018-07-15T00:32:18.490Z,8.33
2018-07-15T00:35:20.827Z,8.17
2018-07-15T00:38:23.154Z,8.33
2018-07-15T00:41:25.630Z,8.67
2018-07-15T00:44:28.307Z,7.80
2018-07-15T00:47:32.546Z,8.17
2018-07-15T00:50:34.821Z,7.70
2018-07-15T00:53:37.186Z,9.57
2018-07-15T00:56:39.515Z,8.20
2018-07-15T00:59:43.734Z,8.13
2018-07-15T01:02:46.502Z,7.67
2018-07-15T01:05:49.119Z,9.37
2018-07-15T01:08:52.757Z,8.33
2018-07-15T01:11:56.035Z,8.90
2018-07-15T01:14:59.485Z,8.73
2018-07-15T01:18:02.212Z,7.57
2018-07-15T01:21:04.935Z,8.37
2018-07-15T01:24:07.674Z,8.73
2018-07-15T01:27:10.405Z,9.67
2018-07-15T01:30:13.332Z,8.50
2018-07-15T01:33:16.166Z,12.80
2018-07-15T01:36:19.465Z,16.97
2018-07-15T01:39:22.496Z,12.07
2018-07-15T01:42:25.265Z,9.23
2018-07-15T01:45:29.117Z,8.80
2018-07-15T01:48:31.867Z,9.33
2018-07-15T01:51:35.495Z,9.50
2018-07-15T01:54:42.686Z,9.27
2018-07-15T01:57:45.312Z,9.23
2018-07-15T02:00:48.070Z,9.57
2018-07-15T02:03:51.454Z,10.00
2018-07-15T02:06:56.245Z,9.67
2018-07-15T02:09:59.639Z,9.33
2018-07-15T02:13:03.130Z,9.37
2018-07-15T02:16:05.422Z,9.87
2018-07-15T02:19:07.833Z,9.17
2018-07-15T02:22:11.623Z,9.03
2018-07-15T02:25:14.357Z,8.40
2018-07-15T02:28:17.054Z,8.33
2018-07-15T02:31:19.804Z,9.07
2018-07-15T02:34:22.644Z,9.30
2018-07-15T02:37:26.320Z,8.80
2018-07-15T02:40:28.764Z,9.03
2018-07-15T02:43:31.172Z,9.03
2018-07-15T02:46:33.943Z,8.77
2018-07-15T02:49:39.667Z,9.40
2018-07-15T02:52:42.410Z,9.70
2018-07-15T02:55:44.943Z,10.00
2018-07-15T02:58:48.048Z,10.30
2018-07-15T03:01:50.533Z,11.53
2018-07-15T03:04:53.190Z,11.30
2018-07-15T03:07:55.528Z,10.83
2018-07-15T03:10:57.889Z,12.20
2018-07-15T03:14:01.311Z,11.53
2018-07-15T03:17:03.562Z,11.43
2018-07-15T03:20:06.108Z,10.13
2018-07-15T03:23:09.636Z,10.77
2018-07-15T03:26:12.234Z,10.87
2018-07-15T03:30:18.123Z,10.57
2018-07-15T03:33:21.580Z,10.90
2018-07-15T03:36:24.077Z,10.40
2018-07-15T03:39:26.472Z,10.83
2018-07-15T03:42:29.048Z,10.70
2018-07-15T03:45:31.505Z,10.00
2018-07-15T03:48:34.258Z,10.60
2018-07-15T03:51:36.859Z,9.50
2018-07-15T03:54:39.379Z,9.77
2018-07-15T03:57:41.757Z,9.43
2018-07-15T04:00:44.375Z,9.83
2018-07-15T04:03:46.862Z,9.37
2018-07-15T04:06:49.381Z,10.13
2018-07-15T04:09:51.992Z,9.03
2018-07-15T04:12:54.723Z,9.20
2018-07-15T04:15:57.259Z,9.47
2018-07-15T04:18:59.784Z,8.67
2018-07-15T04:22:02.049Z,7.87
2018-07-15T04:25:04.389Z,7.23
2018-07-15T04:28:06.807Z,7.27
2018-07-15T04:31:09.364Z,8.80
2018-07-15T04:34:11.971Z,8.00
2018-07-15T04:37:14.625Z,7.43
2018-07-15T04:40:17.455Z,7.70
2018-07-15T04:43:19.922Z,7.10
2018-07-15T04:46:22.535Z,7.07
2018-07-15T04:49:25.201Z,7.60
2018-07-15T04:52:27.693Z,7.57
2018-07-15T04:55:29.893Z,7.63
2018-07-15T04:58:32.200Z,7.53
2018-07-15T05:01:39.112Z,7.07
2018-07-15T05:04:41.580Z,7.27
2018-07-15T05:07:44.025Z,7.20
2018-07-15T05:10:46.572Z,7.13
2018-07-15T05:13:49.105Z,7.10
2018-07-15T05:16:51.733Z,6.73
2018-07-15T05:19:54.150Z,6.87
2018-07-15T05:22:56.635Z,7.63
2018-07-15T05:25:59.233Z,7.57
2018-07-15T05:29:02.833Z,7.70
2018-07-15T05:32:05.388Z,7.67
2018-07-15T05:35:14.727Z,7.80
2018-07-15T05:38:17.189Z,7.43
2018-07-15T05:41:19.720Z,7.50
2018-07-15T05:44:22.081Z,7.53
2018-07-15T05:47:24.430Z,7.03
2018-07-15T05:50:26.737Z,7.57
2018-07-15T05:53:29.218Z,6.80
2018-07-15T05:56:31.679Z,6.83
2018-07-15T05:59:34.279Z,7.30
2018-07-15T06:02:36.805Z,6.83
2018-07-15T06:05:39.464Z,6.97
2018-07-15T06:08:42.222Z,7.30
2018-07-15T06:11:44.861Z,6.90
2018-07-15T06:14:47.589Z,6.93
2018-07-15T06:17:50.307Z,6.87
2018-07-15T06:20:52.638Z,6.17
2018-07-15T06:23:55.026Z,5.77
2018-07-15T06:26:57.424Z,5.77
2018-07-15T06:29:59.794Z,6.17
2018-07-15T06:33:02.230Z,5.43
2018-07-15T06:36:04.748Z,5.40
2018-07-15T06:39:08.239Z,6.10
2018-07-15T06:42:10.981Z,5.50
2018-07-15T06:45:13.545Z,6.10
2018-07-15T06:48:16.153Z,6.20
2018-07-15T06:51:18.865Z,6.50
2018-07-15T06:54:21.122Z,7.33
2018-07-15T06:57:23.606Z,6.60
2018-07-15T07:00:26.239Z,6.13
2018-07-15T07:03:28.816Z,6.53
2018-07-15T07:06:31.570Z,6.00
2018-07-15T07:09:34.265Z,5.53
2018-07-15T07:12:36.809Z,5.80
2018-07-15T07:15:39.435Z,6.00
2018-07-15T07:18:41.995Z,6.60
2018-07-15T07:21:44.541Z,6.33
2018-07-15T07:24:47.231Z,5.70
2018-07-15T07:27:49.435Z,6.20
2018-07-15T07:30:51.741Z,5.90
2018-07-15T07:33:54.167Z,5.53
2018-07-15T07:36:56.655Z,5.67
2018-07-15T07:39:59.316Z,6.03
2018-07-15T07:43:01.859Z,5.87
2018-07-15T07:46:04.747Z,5.73
2018-07-15T07:49:07.384Z,5.77
2018-07-15T07:52:09.993Z,6.03
2018-07-15T07:55:12.621Z,6.80
2018-07-15T07:58:15.060Z,6.00
2018-07-15T08:01:17.285Z,6.00
2018-07-15T08:04:19.544Z,6.53
2018-07-15T08:07:21.917Z,5.77
2018-07-15T08:10:24.397Z,6.10
2018-07-15T08:13:26.939Z,5.80
2018-07-15T08:16:29.437Z,6.00
2018-07-15T08:19:31.766Z,5.73
2018-07-15T08:22:34.533Z,5.30
2018-07-15T08:25:37.056Z,5.50
2018-07-15T08:28:39.602Z,5.73
2018-07-15T08:31:42.253Z,5.13
2018-07-15T08:34:44.852Z,5.03
2018-07-15T08:37:47.372Z,4.70
2018-07-15T08:40:50.378Z,4.67
2018-07-15T08:43:52.846Z,5.00
2018-07-15T08:46:55.501Z,4.37
2018-07-15T08:49:58.108Z,4.70
2018-07-15T08:53:00.802Z,5.00
2018-07-15T08:56:03.105Z,4.53
2018-07-15T08:59:05.436Z,4.60
2018-07-15T09:02:07.932Z,4.90
2018-07-15T09:05:10.488Z,4.40
2018-07-15T09:08:13.136Z,4.13
2018-07-15T09:11:15.819Z,4.93
2018-07-15T09:14:18.231Z,3.80
2018-07-15T09:17:20.948Z,3.67
2018-07-15T09:20:23.650Z,4.30
2018-07-15T09:23:26.256Z,3.80
2018-07-15T09:26:28.836Z,3.80
2018-07-15T09:29:32.011Z,3.20
2018-07-15T09:32:34.451Z,2.90
2018-07-15T09:35:36.825Z,2.77
2018-07-15T09:38:39.543Z,2.20
2018-07-15T09:41:42.229Z,2.30
2018-07-15T09:44:44.597Z,2.80
2018-07-15T09:47:47.085Z,3.07
2018-07-15T09:50:49.545Z,2.57
2018-07-15T09:53:52.034Z,2.40
2018-07-15T09:56:54.696Z,2.40
2018-07-15T09:59:57.195Z,2.40
2018-07-15T10:03:00.503Z,2.70
2018-07-15T10:06:02.882Z,2.70
2018-07-15T10:09:06.241Z,2.63
2018-07-15T10:12:08.909Z,2.83
2018-07-15T10:15:11.460Z,2.60
2018-07-15T10:18:14.154Z,1.97
2018-07-15T10:21:16.766Z,2.23
2018-07-15T10:24:19.218Z,2.27
2018-07-15T10:27:21.785Z,1.70
2018-07-15T10:30:24.477Z,1.87
2018-07-15T10:33:27.122Z,1.73
2018-07-15T10:36:30.652Z,2.07
2018-07-15T10:39:33.569Z,1.80
2018-07-15T10:42:35.852Z,1.80
2018-07-15T10:45:39.093Z,1.67
2018-07-15T10:48:41.636Z,2.13
2018-07-15T10:51:44.039Z,2.17
2018-07-15T10:54:46.423Z,2.23
2018-07-15T10:57:48.853Z,2.20
2018-07-15T11:00:51.232Z,3.30
2018-07-15T11:03:53.897Z,2.77
2018-07-15T11:06:56.366Z,2.93
2018-07-15T11:09:58.986Z,2.10
2018-07-15T11:13:02.517Z,1.90
2018-07-15T11:16:04.893Z,2.10
2018-07-15T11:19:07.378Z,2.20
2018-07-15T11:22:09.855Z,2.57
2018-07-15T11:25:12.321Z,2.30
2018-07-15T11:28:15.066Z,2.00
2018-07-15T11:31:17.813Z,1.97
2018-07-15T11:34:20.414Z,2.33
2018-07-15T11:37:22.903Z,2.13
2018-07-15T11:40:25.581Z,1.80
2018-07-15T11:43:28.041Z,1.90
2018-07-15T11:46:30.649Z,2.07
2018-07-15T11:49:32.906Z,2.30
2018-07-15T11:52:35.309Z,1.60
2018-07-15T11:55:38.011Z,2.10
2018-07-15T11:58:40.705Z,2.10
2018-07-15T12:01:43.336Z,1.67
2018-07-15T12:04:45.727Z,2.40
2018-07-15T12:07:48.210Z,2.40
2018-07-15T12:10:50.835Z,2.13
2018-07-15T12:13:53.512Z,2.27
2018-07-15T12:16:56.261Z,5.50
2018-07-15T12:19:59.118Z,3.80
2018-07-15T12:23:01.848Z,2.33
2018-07-15T12:26:04.499Z,2.10
2018-07-15T12:29:07.752Z,2.30
2018-07-15T12:32:10.519Z,2.10
2018-07-15T12:35:13.145Z,2.00
2018-07-15T12:38:15.920Z,1.80
2018-07-15T12:41:18.582Z,1.77
2018-07-15T12:44:21.260Z,1.77
2018-07-15T12:47:23.779Z,2.53
2018-07-15T12:50:26.480Z,2.00
2018-07-15T12:53:28.902Z,1.67
2018-07-15T12:56:31.400Z,1.70
2018-07-15T12:59:34.024Z,2.43
2018-07-15T13:02:36.710Z,1.90
2018-07-15T13:05:39.359Z,1.93
2018-07-15T13:08:42.161Z,1.60
2018-07-15T13:11:44.904Z,1.90
2018-07-15T13:14:47.572Z,1.43
2018-07-15T13:17:50.324Z,1.50
2018-07-15T13:20:52.813Z,1.90
2018-07-15T13:23:55.481Z,1.63
2018-07-15T13:26:57.983Z,1.90
2018-07-15T13:30:01.599Z,2.23
2018-07-15T13:33:04.115Z,1.83
2018-07-15T13:36:07.460Z,1.70
2018-07-15T13:39:09.736Z,1.97
2018-07-15T13:42:12.201Z,1.77
2018-07-15T13:45:14.614Z,1.97
2018-07-15T13:48:17.298Z,1.93
2018-07-15T13:51:19.806Z,1.90
2018-07-15T13:54:23.358Z,1.90
2018-07-15T13:57:25.683Z,2.13
2018-07-15T14:00:28.040Z,1.60
2018-07-15T14:03:30.312Z,1.77
2018-07-15T14:06:32.616Z,1.20
2018-07-15T14:09:35.126Z,1.30
2018-07-15T14:12:37.725Z,1.37
2018-07-15T14:15:40.464Z,2.00
2018-07-15T14:18:43.265Z,2.00
2018-07-15T14:21:46.796Z,2.07
2018-07-15T14:24:49.237Z,2.03
2018-07-15T14:27:51.983Z,2.10
2018-07-15T14:30:54.519Z,1.90
2018-07-15T14:33:57.995Z,2.00
2018-07-15T14:37:01.582Z,1.83
2018-07-15T14:40:04.487Z,1.73
2018-07-15T14:43:07.163Z,1.47
2018-07-15T14:46:10.433Z,1.27
2018-07-15T14:49:14.475Z,1.40
2018-07-15T14:52:17.371Z,1.40
2018-07-15T14:55:20.379Z,1.53
2018-07-15T14:58:23.033Z,1.70
2018-07-15T15:01:25.894Z,1.30
2018-07-15T15:04:28.755Z,1.40
2018-07-15T15:08:34.748Z,1.30
2018-07-15T15:11:38.330Z,2.00
2018-07-15T15:14:40.958Z,1.50
2018-07-15T15:17:43.777Z,1.97
2018-07-15T15:20:46.652Z,1.70
2018-07-15T15:23:49.262Z,1.40
2018-07-15T15:26:52.471Z,1.40
2018-07-15T15:29:55.483Z,1.70
2018-07-15T15:32:58.203Z,2.00
2018-07-15T15:36:02.069Z,1.23
2018-07-15T15:39:05.674Z,1.53
2018-07-15T15:42:08.722Z,1.60
2018-07-15T15:45:11.283Z,2.00
2018-07-15T15:48:13.902Z,1.90
2018-07-15T15:51:16.532Z,1.80
2018-07-15T15:54:19.092Z,1.63
2018-07-15T15:57:21.461Z,2.30
2018-07-15T16:00:23.927Z,2.57
2018-07-15T16:03:26.473Z,2.03
2018-07-15T16:06:30.007Z,2.83
2018-07-15T16:09:32.699Z,3.10
2018-07-15T16:12:35.292Z,1.70
2018-07-15T16:15:37.999Z,1.47
2018-07-15T16:18:40.567Z,1.90
2018-07-15T16:21:42.952Z,1.70
2018-07-15T16:24:45.209Z,1.87
2018-07-15T16:27:47.541Z,2.23
2018-07-15T16:30:50.194Z,1.93
2018-07-15T16:33:52.607Z,1.30
2018-07-15T16:36:54.871Z,1.30
2018-07-15T16:39:58.333Z,1.50
2018-07-15T16:43:00.779Z,1.40
2018-07-15T16:46:03.455Z,1.60
2018-07-15T16:49:05.960Z,1.20
2018-07-15T16:52:08.573Z,1.50
2018-07-15T16:55:11.108Z,1.83
2018-07-15T16:58:13.655Z,1.80
2018-07-15T17:01:16.411Z,1.60
2018-07-15T17:04:18.887Z,1.57
2018-07-15T17:07:21.180Z,3.03
2018-07-15T17:10:23.653Z,2.13
2018-07-15T17:13:26.343Z,2.30
2018-07-15T17:16:28.783Z,3.40
2018-07-15T17:19:31.167Z,1.73
2018-07-15T17:22:33.590Z,3.33
2018-07-15T17:25:36.243Z,2.87
2018-07-15T17:28:38.841Z,3.40
2018-07-15T17:31:41.261Z,3.20
2018-07-15T17:34:43.560Z,2.97
2018-07-15T17:37:45.975Z,2.90
2018-07-15T17:40:48.176Z,3.30
2018-07-15T17:43:50.450Z,2.90
2018-07-15T17:46:52.786Z,3.00
2018-07-15T17:49:55.026Z,3.00
2018-07-15T17:52:57.465Z,3.37
2018-07-15T17:55:59.808Z,3.00
2018-07-15T17:59:02.374Z,3.57
2018-07-15T18:02:05.049Z,3.20
2018-07-15T18:05:07.756Z,3.20
2018-07-15T18:08:10.148Z,3.07
2018-07-15T18:11:12.513Z,2.93
2018-07-15T18:14:15.011Z,3.30
2018-07-15T18:17:17.306Z,3.40
2018-07-15T18:20:19.570Z,2.83
2018-07-15T18:23:21.944Z,3.10
2018-07-15T18:26:24.735Z,2.53
2018-07-15T18:29:27.343Z,2.43
2018-07-15T18:32:29.897Z,1.77
2018-07-15T18:35:32.429Z,1.80
2018-07-15T18:38:34.989Z,1.80
2018-07-15T18:41:37.688Z,1.80
2018-07-15T18:44:41.396Z,1.50
2018-07-15T18:47:44.310Z,1.57
2018-07-15T18:50:46.832Z,1.47
2018-07-15T18:53:49.145Z,2.10
2018-07-15T18:56:51.723Z,2.27
2018-07-15T18:59:54.144Z,2.97
2018-07-15T19:02:56.698Z,2.97
2018-07-15T19:05:59.366Z,3.70
2018-07-15T19:09:01.927Z,2.40
2018-07-15T19:12:04.582Z,1.83
2018-07-15T19:15:07.260Z,2.30
2018-07-15T19:18:09.749Z,1.80
2018-07-15T19:21:12.468Z,1.60
2018-07-15T19:24:15.049Z,1.63
2018-07-15T19:27:17.715Z,1.60
2018-07-15T19:30:20.030Z,1.20
2018-07-15T19:33:22.699Z,1.17
2018-07-15T19:37:28.464Z,0.90
2018-07-15T19:40:30.963Z,1.10
2018-07-15T19:43:33.518Z,1.10
2018-07-15T19:46:36.083Z,1.03
2018-07-15T19:49:38.678Z,1.57
2018-07-15T19:52:41.342Z,1.63
2018-07-15T19:55:43.884Z,1.57
2018-07-15T19:58:46.471Z,1.30
2018-07-15T20:01:49.136Z,1.67
2018-07-15T20:04:51.653Z,1.70
2018-07-15T20:07:54.301Z,0.83
2018-07-15T20:10:56.910Z,1.20
2018-07-15T20:13:59.487Z,1.60
2018-07-15T20:17:02.130Z,1.10
2018-07-15T20:20:04.718Z,0.90
2018-07-15T20:23:07.296Z,0.97
2018-07-15T20:26:09.798Z,0.83
2018-07-15T20:29:12.415Z,1.13
2018-07-15T20:32:14.906Z,0.97
2018-07-15T20:35:17.545Z,1.00
2018-07-15T20:38:20.149Z,1.20
2018-07-15T20:41:22.732Z,1.13
2018-07-15T20:44:25.251Z,1.50
2018-07-15T20:47:28.018Z,1.40
2018-07-15T20:50:30.527Z,1.50
2018-07-15T20:53:33.107Z,1.20
2018-07-15T20:56:35.711Z,1.40
2018-07-15T20:59:38.145Z,1.53
2018-07-15T21:02:40.840Z,1.30
2018-07-15T21:05:45.435Z,1.33
2018-07-15T21:08:48.812Z,1.33
2018-07-15T21:11:51.459Z,1.20
2018-07-15T21:14:54.028Z,1.40
2018-07-15T21:17:56.804Z,1.10
2018-07-15T21:21:00.492Z,1.10
2018-07-15T21:24:03.150Z,1.50
2018-07-15T21:27:05.607Z,1.10
2018-07-15T21:30:08.200Z,1.40
2018-07-15T21:33:10.796Z,1.30
2018-07-15T21:36:13.430Z,1.07
2018-07-15T21:39:16.098Z,1.40
2018-07-15T21:42:18.756Z,1.30
2018-07-15T21:45:21.372Z,1.20
2018-07-15T21:48:23.916Z,1.17
2018-07-15T21:51:26.336Z,1.90
2018-07-15T21:54:28.889Z,1.33
2018-07-15T21:57:31.372Z,1.33
2018-07-15T22:00:33.868Z,1.40
2018-07-15T22:03:36.427Z,1.47
2018-07-15T22:06:50.125Z,1.30
2018-07-15T22:11:01.384Z,1.50
2018-07-15T22:14:03.923Z,1.90
2018-07-15T22:17:06.526Z,1.27
2018-07-15T22:20:09.091Z,1.50
2018-07-15T22:23:11.465Z,1.37
2018-07-15T22:26:13.979Z,1.37
2018-07-15T22:29:16.545Z,1.40
2018-07-15T22:32:19.154Z,1.33
2018-07-15T22:35:21.869Z,1.50
2018-07-15T22:38:24.300Z,1.30
2018-07-15T22:41:27.122Z,1.27
2018-07-15T22:44:29.755Z,1.40
2018-07-15T22:47:32.292Z,1.43
2018-07-15T22:50:34.955Z,1.47
2018-07-15T22:53:37.581Z,1.57
2018-07-15T22:56:40.235Z,1.70
2018-07-15T22:59:43.553Z,1.53
2018-07-15T23:02:46.290Z,1.40
2018-07-15T23:06:01.420Z,1.70
2018-07-15T23:09:04.964Z,1.70
2018-07-15T23:12:13.408Z,1.27
2018-07-15T23:15:16.077Z,1.57
2018-07-15T23:18:21.101Z,1.63
2018-07-15T23:21:23.654Z,1.53
2018-07-15T23:24:27.311Z,1.50
2018-07-15T23:27:32.008Z,1.70
2018-07-15T23:30:35.317Z,1.63
2018-07-15T23:33:37.983Z,1.60
2018-07-15T23:36:47.537Z,1.63
2018-07-15T23:39:52.046Z,1.20
2018-07-15T23:42:55.580Z,1.63
2018-07-15T23:45:58.187Z,1.47
2018-07-15T23:49:00.743Z,2.10
2018-07-15T23:52:04.544Z,1.77
2018-07-15T23:55:07.185Z,1.30
2018-07-15T23:58:09.871Z,1.40
